sensor_id;sensor_type;location;lat;lon;timestamp;P1;durP1;ratioP1;P2;durP2;ratioP2
78183;SDS011;67442;44.570;18.610;2023-05-24T00:01:39;14.27;;;6.25;;
78183;SDS011;67442;44.570;18.610;2023-05-24T00:04:07;14.07;;;5.78;;
78183;SDS011;67442;44.570;18.610;2023-05-24T00:06:39;15.15;;;5.35;;
78183;SDS011;67442;44.570;18.610;2023-05-24T00:09:09;12.20;;;5.50;;
78183;SDS011;67442;44.570;18.610;2023-05-24T00:11:36;13.75;;;6.78;;
78183;SDS011;67442;44.570;18.610;2023-05-24T00:14:03;11.98;;;5.40;;
78183;SDS011;67442;44.570;18.610;2023-05-24T00:16:30;15.05;;;6.05;;
78183;SDS011;67442;44.570;18.610;2023-05-24T00:18:58;11.02;;;5.43;;
78183;SDS011;67442;44.570;18.610;2023-05-24T00:21:25;11.95;;;5.07;;
78183;SDS011;67442;44.570;18.610;2023-05-24T00:23:52;13.13;;;5.93;;
78183;SDS011;67442;44.570;18.610;2023-05-24T00:26:19;10.75;;;5.80;;
78183;SDS011;67442;44.570;18.610;2023-05-24T00:28:47;11.80;;;5.65;;
78183;SDS011;67442;44.570;18.610;2023-05-24T00:31:14;14.93;;;5.75;;
78183;SDS011;67442;44.570;18.610;2023-05-24T00:33:42;14.98;;;5.78;;
78183;SDS011;67442;44.570;18.610;2023-05-24T00:36:09;10.63;;;5.53;;
78183;SDS011;67442;44.570;18.610;2023-05-24T00:38:36;10.65;;;5.43;;
78183;SDS011;67442;44.570;18.610;2023-05-24T00:41:07;14.63;;;6.22;;
78183;SDS011;67442;44.570;18.610;2023-05-24T00:43:36;11.95;;;5.32;;
78183;SDS011;67442;44.570;18.610;2023-05-24T00:49:08;14.80;;;6.07;;
78183;SDS011;67442;44.570;18.610;2023-05-24T00:51:36;15.13;;;5.65;;
78183;SDS011;67442;44.570;18.610;2023-05-24T00:54:03;14.32;;;5.43;;
78183;SDS011;67442;44.570;18.610;2023-05-24T00:56:31;11.45;;;5.00;;
78183;SDS011;67442;44.570;18.610;2023-05-24T00:59:02;15.52;;;6.05;;
78183;SDS011;67442;44.570;18.610;2023-05-24T01:01:30;13.73;;;5.80;;
78183;SDS011;67442;44.570;18.610;2023-05-24T01:03:57;10.85;;;5.20;;
78183;SDS011;67442;44.570;18.610;2023-05-24T01:06:24;11.02;;;5.53;;
78183;SDS011;67442;44.570;18.610;2023-05-24T01:21:05;15.00;;;5.70;;
78183;SDS011;67442;44.570;18.610;2023-05-24T01:29:20;11.88;;;5.78;;
78183;SDS011;67442;44.570;18.610;2023-05-24T01:31:48;15.60;;;5.43;;
78183;SDS011;67442;44.570;18.610;2023-05-24T01:34:15;11.43;;;5.55;;
78183;SDS011;67442;44.570;18.610;2023-05-24T01:36:46;14.63;;;5.13;;
78183;SDS011;67442;44.570;18.610;2023-05-24T01:39:13;10.88;;;5.22;;
78183;SDS011;67442;44.570;18.610;2023-05-24T01:41:59;10.57;;;5.30;;
78183;SDS011;67442;44.570;18.610;2023-05-24T01:44:35;10.68;;;5.25;;
78183;SDS011;67442;44.570;18.610;2023-05-24T01:47:15;14.73;;;5.03;;
78183;SDS011;67442;44.570;18.610;2023-05-24T01:49:48;10.23;;;5.00;;
78183;SDS011;67442;44.570;18.610;2023-05-24T01:52:18;9.48;;;4.78;;
78183;SDS011;67442;44.570;18.610;2023-05-24T01:54:50;10.52;;;5.25;;
78183;SDS011;67442;44.570;18.610;2023-05-24T01:57:19;13.15;;;5.07;;
78183;SDS011;67442;44.570;18.610;2023-05-24T01:59:47;12.85;;;5.13;;
78183;SDS011;67442;44.570;18.610;2023-05-24T02:02:16;9.23;;;5.05;;
78183;SDS011;67442;44.570;18.610;2023-05-24T02:04:46;10.40;;;5.38;;
78183;SDS011;67442;44.570;18.610;2023-05-24T02:07:14;8.52;;;4.63;;
78183;SDS011;67442;44.570;18.610;2023-05-24T02:09:42;10.98;;;5.13;;
78183;SDS011;67442;44.570;18.610;2023-05-24T02:12:09;10.77;;;4.93;;
78183;SDS011;67442;44.570;18.610;2023-05-24T02:14:37;11.60;;;5.45;;
78183;SDS011;67442;44.570;18.610;2023-05-24T02:17:07;11.30;;;5.18;;
78183;SDS011;67442;44.570;18.610;2023-05-24T02:19:33;12.20;;;5.47;;
78183;SDS011;67442;44.570;18.610;2023-05-24T02:22:20;8.93;;;4.97;;
78183;SDS011;67442;44.570;18.610;2023-05-24T02:24:48;11.45;;;4.85;;
78183;SDS011;67442;44.570;18.610;2023-05-24T02:27:14;11.90;;;5.10;;
78183;SDS011;67442;44.570;18.610;2023-05-24T02:29:46;10.95;;;4.97;;
78183;SDS011;67442;44.570;18.610;2023-05-24T02:32:13;10.30;;;4.20;;
78183;SDS011;67442;44.570;18.610;2023-05-24T02:34:40;14.45;;;5.15;;
78183;SDS011;67442;44.570;18.610;2023-05-24T02:37:07;10.63;;;5.28;;
78183;SDS011;67442;44.570;18.610;2023-05-24T02:39:34;10.82;;;4.53;;
78183;SDS011;67442;44.570;18.610;2023-05-24T02:42:01;9.40;;;5.15;;
78183;SDS011;67442;44.570;18.610;2023-05-24T02:44:30;17.98;;;5.28;;
78183;SDS011;67442;44.570;18.610;2023-05-24T02:46:57;8.43;;;4.47;;
78183;SDS011;67442;44.570;18.610;2023-05-24T02:49:24;9.10;;;4.55;;
78183;SDS011;67442;44.570;18.610;2023-05-24T02:51:51;8.95;;;4.57;;
78183;SDS011;67442;44.570;18.610;2023-05-24T02:54:23;10.00;;;5.10;;
78183;SDS011;67442;44.570;18.610;2023-05-24T02:56:50;9.43;;;4.78;;
78183;SDS011;67442;44.570;18.610;2023-05-24T02:59:17;11.07;;;5.07;;
78183;SDS011;67442;44.570;18.610;2023-05-24T03:01:45;8.70;;;4.85;;
78183;SDS011;67442;44.570;18.610;2023-05-24T03:04:12;9.20;;;4.63;;
78183;SDS011;67442;44.570;18.610;2023-05-24T03:06:40;6.82;;;4.65;;
78183;SDS011;67442;44.570;18.610;2023-05-24T03:09:07;11.15;;;5.43;;
78183;SDS011;67442;44.570;18.610;2023-05-24T03:11:35;9.60;;;4.78;;
78183;SDS011;67442;44.570;18.610;2023-05-24T03:14:02;10.35;;;4.78;;
78183;SDS011;67442;44.570;18.610;2023-05-24T03:16:30;8.98;;;4.97;;
78183;SDS011;67442;44.570;18.610;2023-05-24T03:18:58;8.80;;;4.63;;
78183;SDS011;67442;44.570;18.610;2023-05-24T03:21:25;8.95;;;4.55;;
78183;SDS011;67442;44.570;18.610;2023-05-24T03:23:55;11.43;;;4.35;;
78183;SDS011;67442;44.570;18.610;2023-05-24T03:26:23;8.63;;;4.53;;
78183;SDS011;67442;44.570;18.610;2023-05-24T03:28:51;8.23;;;4.35;;
78183;SDS011;67442;44.570;18.610;2023-05-24T03:31:21;10.38;;;4.25;;
78183;SDS011;67442;44.570;18.610;2023-05-24T03:33:53;9.05;;;4.38;;
78183;SDS011;67442;44.570;18.610;2023-05-24T03:36:20;8.35;;;4.50;;
78183;SDS011;67442;44.570;18.610;2023-05-24T03:38:50;9.40;;;4.50;;
78183;SDS011;67442;44.570;18.610;2023-05-24T03:41:17;6.85;;;4.28;;
78183;SDS011;67442;44.570;18.610;2023-05-24T03:43:44;8.10;;;4.22;;
78183;SDS011;67442;44.570;18.610;2023-05-24T03:46:12;9.48;;;4.43;;
78183;SDS011;67442;44.570;18.610;2023-05-24T03:48:38;8.93;;;4.45;;
78183;SDS011;67442;44.570;18.610;2023-05-24T03:51:05;8.65;;;4.32;;
78183;SDS011;67442;44.570;18.610;2023-05-24T03:53:33;7.95;;;4.38;;
78183;SDS011;67442;44.570;18.610;2023-05-24T03:56:01;7.85;;;4.03;;
78183;SDS011;67442;44.570;18.610;2023-05-24T03:58:32;7.20;;;4.40;;
78183;SDS011;67442;44.570;18.610;2023-05-24T04:01:04;6.90;;;4.40;;
78183;SDS011;67442;44.570;18.610;2023-05-24T04:03:35;7.53;;;4.40;;
78183;SDS011;67442;44.570;18.610;2023-05-24T04:06:03;8.18;;;4.60;;
78183;SDS011;67442;44.570;18.610;2023-05-24T04:08:31;6.75;;;3.78;;
78183;SDS011;67442;44.570;18.610;2023-05-24T04:11:02;8.95;;;4.53;;
78183;SDS011;67442;44.570;18.610;2023-05-24T04:13:29;8.57;;;4.03;;
78183;SDS011;67442;44.570;18.610;2023-05-24T04:15:56;6.07;;;3.97;;
78183;SDS011;67442;44.570;18.610;2023-05-24T04:18:24;7.95;;;4.25;;
78183;SDS011;67442;44.570;18.610;2023-05-24T04:20:51;6.53;;;4.47;;
78183;SDS011;67442;44.570;18.610;2023-05-24T04:23:18;8.27;;;4.43;;
78183;SDS011;67442;44.570;18.610;2023-05-24T04:25:46;10.15;;;4.18;;
78183;SDS011;67442;44.570;18.610;2023-05-24T04:28:13;9.45;;;4.13;;
78183;SDS011;67442;44.570;18.610;2023-05-24T04:30:41;7.03;;;4.07;;
78183;SDS011;67442;44.570;18.610;2023-05-24T04:33:10;8.25;;;4.38;;
78183;SDS011;67442;44.570;18.610;2023-05-24T04:35:42;24.58;;;7.70;;
78183;SDS011;67442;44.570;18.610;2023-05-24T04:38:14;215.68;;;40.95;;
78183;SDS011;67442;44.570;18.610;2023-05-24T04:40:46;282.88;;;56.10;;
78183;SDS011;67442;44.570;18.610;2023-05-24T04:43:17;247.88;;;50.08;;
78183;SDS011;67442;44.570;18.610;2023-05-24T04:45:45;223.35;;;49.13;;
78183;SDS011;67442;44.570;18.610;2023-05-24T04:48:12;255.05;;;50.75;;
78183;SDS011;67442;44.570;18.610;2023-05-24T04:50:38;230.30;;;50.28;;
78183;SDS011;67442;44.570;18.610;2023-05-24T04:53:05;213.38;;;46.47;;
78183;SDS011;67442;44.570;18.610;2023-05-24T04:55:32;220.80;;;46.42;;
78183;SDS011;67442;44.570;18.610;2023-05-24T04:58:00;206.82;;;44.08;;
78183;SDS011;67442;44.570;18.610;2023-05-24T05:00:27;189.65;;;42.25;;
78183;SDS011;67442;44.570;18.610;2023-05-24T05:02:59;187.32;;;39.25;;
78183;SDS011;67442;44.570;18.610;2023-05-24T05:05:26;191.73;;;39.10;;
78183;SDS011;67442;44.570;18.610;2023-05-24T05:07:53;169.30;;;38.22;;
78183;SDS011;67442;44.570;18.610;2023-05-24T05:10:20;177.75;;;37.85;;
78183;SDS011;67442;44.570;18.610;2023-05-24T05:12:47;157.40;;;36.30;;
78183;SDS011;67442;44.570;18.610;2023-05-24T05:15:15;158.45;;;35.67;;
78183;SDS011;67442;44.570;18.610;2023-05-24T05:17:43;145.88;;;35.63;;
78183;SDS011;67442;44.570;18.610;2023-05-24T05:20:14;159.32;;;36.83;;
78183;SDS011;67442;44.570;18.610;2023-05-24T05:22:45;144.23;;;35.72;;
78183;SDS011;67442;44.570;18.610;2023-05-24T05:25:12;140.13;;;34.83;;
78183;SDS011;67442;44.570;18.610;2023-05-24T05:27:39;127.50;;;32.92;;
78183;SDS011;67442;44.570;18.610;2023-05-24T05:30:10;154.88;;;33.88;;
78183;SDS011;67442;44.570;18.610;2023-05-24T05:32:38;138.68;;;33.15;;
78183;SDS011;67442;44.570;18.610;2023-05-24T05:35:05;138.15;;;33.67;;
78183;SDS011;67442;44.570;18.610;2023-05-24T05:37:38;125.93;;;31.25;;
78183;SDS011;67442;44.570;18.610;2023-05-24T05:40:05;123.68;;;32.25;;
78183;SDS011;67442;44.570;18.610;2023-05-24T05:42:34;130.70;;;31.92;;
78183;SDS011;67442;44.570;18.610;2023-05-24T05:45:05;127.00;;;31.00;;
78183;SDS011;67442;44.570;18.610;2023-05-24T05:47:33;126.47;;;32.53;;
78183;SDS011;67442;44.570;18.610;2023-05-24T05:50:01;120.60;;;31.10;;
78183;SDS011;67442;44.570;18.610;2023-05-24T05:52:28;134.43;;;31.00;;
78183;SDS011;67442;44.570;18.610;2023-05-24T05:54:56;117.28;;;30.67;;
78183;SDS011;67442;44.570;18.610;2023-05-24T05:57:25;118.70;;;29.10;;
78183;SDS011;67442;44.570;18.610;2023-05-24T05:59:55;119.25;;;31.30;;
78183;SDS011;67442;44.570;18.610;2023-05-24T06:02:26;110.18;;;29.52;;
78183;SDS011;67442;44.570;18.610;2023-05-24T06:04:53;110.22;;;29.45;;
78183;SDS011;67442;44.570;18.610;2023-05-24T06:07:21;111.40;;;29.63;;
78183;SDS011;67442;44.570;18.610;2023-05-24T06:09:48;121.35;;;30.45;;
78183;SDS011;67442;44.570;18.610;2023-05-24T06:12:15;123.22;;;30.52;;
78183;SDS011;67442;44.570;18.610;2023-05-24T06:14:43;106.53;;;28.58;;
78183;SDS011;67442;44.570;18.610;2023-05-24T06:17:15;111.53;;;27.17;;
78183;SDS011;67442;44.570;18.610;2023-05-24T06:19:43;111.68;;;29.15;;
78183;SDS011;67442;44.570;18.610;2023-05-24T06:22:10;109.65;;;28.52;;
78183;SDS011;67442;44.570;18.610;2023-05-24T06:24:38;112.82;;;28.23;;
78183;SDS011;67442;44.570;18.610;2023-05-24T06:27:05;109.65;;;28.77;;
78183;SDS011;67442;44.570;18.610;2023-05-24T06:29:36;94.15;;;26.63;;
78183;SDS011;67442;44.570;18.610;2023-05-24T06:32:04;96.65;;;26.42;;
78183;SDS011;67442;44.570;18.610;2023-05-24T06:34:32;110.65;;;28.38;;
78183;SDS011;67442;44.570;18.610;2023-05-24T06:36:59;96.15;;;27.15;;
78183;SDS011;67442;44.570;18.610;2023-05-24T06:39:27;98.72;;;27.05;;
78183;SDS011;67442;44.570;18.610;2023-05-24T06:41:54;97.55;;;25.70;;
78183;SDS011;67442;44.570;18.610;2023-05-24T06:44:22;96.25;;;26.88;;
78183;SDS011;67442;44.570;18.610;2023-05-24T06:46:56;88.03;;;25.50;;
78183;SDS011;67442;44.570;18.610;2023-05-24T06:49:23;92.47;;;25.58;;
78183;SDS011;67442;44.570;18.610;2023-05-24T06:51:51;83.80;;;24.73;;
78183;SDS011;67442;44.570;18.610;2023-05-24T06:54:18;90.93;;;25.08;;
78183;SDS011;67442;44.570;18.610;2023-05-24T06:56:45;96.97;;;25.70;;
78183;SDS011;67442;44.570;18.610;2023-05-24T06:59:12;99.43;;;24.83;;
78183;SDS011;67442;44.570;18.610;2023-05-24T07:01:39;95.20;;;25.15;;
78183;SDS011;67442;44.570;18.610;2023-05-24T07:04:07;95.32;;;25.42;;
78183;SDS011;67442;44.570;18.610;2023-05-24T07:06:34;88.28;;;25.15;;
78183;SDS011;67442;44.570;18.610;2023-05-24T07:09:04;89.45;;;25.80;;
78183;SDS011;67442;44.570;18.610;2023-05-24T07:11:32;84.05;;;24.10;;
78183;SDS011;67442;44.570;18.610;2023-05-24T07:13:59;87.03;;;25.60;;
78183;SDS011;67442;44.570;18.610;2023-05-24T07:16:26;87.97;;;23.95;;
78183;SDS011;67442;44.570;18.610;2023-05-24T07:18:54;85.35;;;22.73;;
78183;SDS011;67442;44.570;18.610;2023-05-24T07:21:22;83.18;;;24.90;;
78183;SDS011;67442;44.570;18.610;2023-05-24T07:23:50;76.40;;;23.67;;
78183;SDS011;67442;44.570;18.610;2023-05-24T07:26:16;77.25;;;23.38;;
78183;SDS011;67442;44.570;18.610;2023-05-24T07:28:47;89.25;;;24.48;;
78183;SDS011;67442;44.570;18.610;2023-05-24T07:31:14;77.32;;;22.67;;
78183;SDS011;67442;44.570;18.610;2023-05-24T07:33:41;81.55;;;23.48;;
78183;SDS011;67442;44.570;18.610;2023-05-24T07:36:08;83.25;;;24.02;;
78183;SDS011;67442;44.570;18.610;2023-05-24T07:38:35;88.20;;;22.98;;
78183;SDS011;67442;44.570;18.610;2023-05-24T07:41:03;84.60;;;22.48;;
78183;SDS011;67442;44.570;18.610;2023-05-24T07:43:32;74.43;;;21.27;;
78183;SDS011;67442;44.570;18.610;2023-05-24T07:45:59;73.05;;;23.42;;
78183;SDS011;67442;44.570;18.610;2023-05-24T07:48:26;71.25;;;22.17;;
78183;SDS011;67442;44.570;18.610;2023-05-24T07:50:53;63.05;;;21.42;;
78183;SDS011;67442;44.570;18.610;2023-05-24T07:53:21;81.75;;;21.95;;
78183;SDS011;67442;44.570;18.610;2023-05-24T07:55:48;71.35;;;20.85;;
78183;SDS011;67442;44.570;18.610;2023-05-24T07:58:16;75.50;;;22.13;;
78183;SDS011;67442;44.570;18.610;2023-05-24T08:00:43;66.97;;;20.05;;
78183;SDS011;67442;44.570;18.610;2023-05-24T08:03:11;72.95;;;21.15;;
78183;SDS011;67442;44.570;18.610;2023-05-24T08:05:40;69.47;;;20.60;;
78183;SDS011;67442;44.570;18.610;2023-05-24T08:08:07;65.53;;;19.85;;
78183;SDS011;67442;44.570;18.610;2023-05-24T08:10:34;66.55;;;21.83;;
78183;SDS011;67442;44.570;18.610;2023-05-24T08:13:03;62.78;;;20.50;;
78183;SDS011;67442;44.570;18.610;2023-05-24T08:15:34;61.78;;;20.05;;
78183;SDS011;67442;44.570;18.610;2023-05-24T08:18:01;60.10;;;20.13;;
78183;SDS011;67442;44.570;18.610;2023-05-24T08:20:29;62.08;;;19.58;;
78183;SDS011;67442;44.570;18.610;2023-05-24T08:23:00;55.67;;;19.27;;
78183;SDS011;67442;44.570;18.610;2023-05-24T08:25:27;62.33;;;19.23;;
78183;SDS011;67442;44.570;18.610;2023-05-24T08:27:55;58.90;;;18.00;;
78183;SDS011;67442;44.570;18.610;2023-05-24T08:30:26;64.28;;;19.52;;
78183;SDS011;67442;44.570;18.610;2023-05-24T08:32:53;58.10;;;19.08;;
78183;SDS011;67442;44.570;18.610;2023-05-24T08:35:20;55.58;;;18.17;;
78183;SDS011;67442;44.570;18.610;2023-05-24T08:37:47;54.47;;;18.48;;
78183;SDS011;67442;44.570;18.610;2023-05-24T08:40:18;56.30;;;19.38;;
78183;SDS011;67442;44.570;18.610;2023-05-24T08:42:45;57.00;;;18.65;;
78183;SDS011;67442;44.570;18.610;2023-05-24T08:45:13;61.13;;;19.65;;
78183;SDS011;67442;44.570;18.610;2023-05-24T08:47:42;53.33;;;18.48;;
78183;SDS011;67442;44.570;18.610;2023-05-24T08:50:09;51.70;;;17.55;;
78183;SDS011;67442;44.570;18.610;2023-05-24T08:52:36;55.85;;;19.73;;
78183;SDS011;67442;44.570;18.610;2023-05-24T08:55:03;51.88;;;17.55;;
78183;SDS011;67442;44.570;18.610;2023-05-24T08:57:38;50.83;;;17.27;;
78183;SDS011;67442;44.570;18.610;2023-05-24T09:00:09;50.90;;;18.05;;
78183;SDS011;67442;44.570;18.610;2023-05-24T09:02:37;54.38;;;17.60;;
78183;SDS011;67442;44.570;18.610;2023-05-24T09:05:07;55.00;;;18.63;;
78183;SDS011;67442;44.570;18.610;2023-05-24T09:07:44;49.42;;;17.50;;
78183;SDS011;67442;44.570;18.610;2023-05-24T09:10:27;43.97;;;16.95;;
78183;SDS011;67442;44.570;18.610;2023-05-24T09:12:56;45.78;;;16.65;;
78183;SDS011;67442;44.570;18.610;2023-05-24T09:15:26;45.97;;;16.00;;
78183;SDS011;67442;44.570;18.610;2023-05-24T09:17:53;44.83;;;16.20;;
78183;SDS011;67442;44.570;18.610;2023-05-24T09:20:20;48.20;;;15.93;;
78183;SDS011;67442;44.570;18.610;2023-05-24T09:22:51;47.90;;;17.67;;
78183;SDS011;67442;44.570;18.610;2023-05-24T09:25:18;53.78;;;15.93;;
78183;SDS011;67442;44.570;18.610;2023-05-24T09:27:49;50.30;;;16.77;;
78183;SDS011;67442;44.570;18.610;2023-05-24T09:30:21;51.03;;;16.55;;
78183;SDS011;67442;44.570;18.610;2023-05-24T09:32:57;50.25;;;15.80;;
78183;SDS011;67442;44.570;18.610;2023-05-24T09:35:42;46.08;;;16.13;;
78183;SDS011;67442;44.570;18.610;2023-05-24T09:38:17;48.80;;;17.77;;
78183;SDS011;67442;44.570;18.610;2023-05-24T09:40:44;46.13;;;17.15;;
78183;SDS011;67442;44.570;18.610;2023-05-24T09:43:15;44.58;;;16.50;;
78183;SDS011;67442;44.570;18.610;2023-05-24T09:45:43;39.50;;;15.40;;
78183;SDS011;67442;44.570;18.610;2023-05-24T09:48:12;46.15;;;16.10;;
78183;SDS011;67442;44.570;18.610;2023-05-24T09:50:41;47.40;;;16.25;;
78183;SDS011;67442;44.570;18.610;2023-05-24T09:53:12;45.83;;;15.60;;
78183;SDS011;67442;44.570;18.610;2023-05-24T09:55:43;45.28;;;16.50;;
78183;SDS011;67442;44.570;18.610;2023-05-24T09:58:15;45.90;;;16.35;;
78183;SDS011;67442;44.570;18.610;2023-05-24T10:00:42;45.35;;;16.00;;
78183;SDS011;67442;44.570;18.610;2023-05-24T10:03:10;41.25;;;16.48;;
78183;SDS011;67442;44.570;18.610;2023-05-24T10:05:43;47.53;;;15.50;;
78183;SDS011;67442;44.570;18.610;2023-05-24T10:08:11;38.58;;;14.77;;
78183;SDS011;67442;44.570;18.610;2023-05-24T10:10:39;46.92;;;15.40;;
78183;SDS011;67442;44.570;18.610;2023-05-24T10:13:12;40.85;;;15.93;;
78183;SDS011;67442;44.570;18.610;2023-05-24T10:15:40;46.40;;;16.55;;
78183;SDS011;67442;44.570;18.610;2023-05-24T10:18:07;40.55;;;14.07;;
78183;SDS011;67442;44.570;18.610;2023-05-24T10:20:38;41.53;;;15.60;;
78183;SDS011;67442;44.570;18.610;2023-05-24T10:23:08;42.70;;;15.23;;
78183;SDS011;67442;44.570;18.610;2023-05-24T10:25:44;48.65;;;14.90;;
78183;SDS011;67442;44.570;18.610;2023-05-24T10:28:15;40.38;;;15.32;;
78183;SDS011;67442;44.570;18.610;2023-05-24T10:33:34;42.20;;;15.38;;
78183;SDS011;67442;44.570;18.610;2023-05-24T10:36:03;40.75;;;15.48;;
78183;SDS011;67442;44.570;18.610;2023-05-24T10:38:33;37.20;;;14.95;;
78183;SDS011;67442;44.570;18.610;2023-05-24T10:41:01;39.17;;;15.05;;
78183;SDS011;67442;44.570;18.610;2023-05-24T10:43:29;34.28;;;13.77;;
78183;SDS011;67442;44.570;18.610;2023-05-24T10:45:56;39.83;;;14.25;;
78183;SDS011;67442;44.570;18.610;2023-05-24T10:50:52;41.15;;;14.35;;
78183;SDS011;67442;44.570;18.610;2023-05-24T10:53:20;44.05;;;14.38;;
78183;SDS011;67442;44.570;18.610;2023-05-24T10:55:51;33.80;;;13.32;;
78183;SDS011;67442;44.570;18.610;2023-05-24T11:01:30;38.13;;;14.52;;
78183;SDS011;67442;44.570;18.610;2023-05-24T11:04:07;35.63;;;13.68;;
78183;SDS011;67442;44.570;18.610;2023-05-24T11:09:38;40.15;;;13.45;;
78183;SDS011;67442;44.570;18.610;2023-05-24T11:12:16;42.35;;;14.32;;
78183;SDS011;67442;44.570;18.610;2023-05-24T11:14:51;39.63;;;14.25;;
78183;SDS011;67442;44.570;18.610;2023-05-24T11:17:23;36.95;;;14.02;;
78183;SDS011;67442;44.570;18.610;2023-05-24T11:19:51;33.53;;;13.60;;
78183;SDS011;67442;44.570;18.610;2023-05-24T11:22:20;33.92;;;13.10;;
78183;SDS011;67442;44.570;18.610;2023-05-24T11:24:52;36.95;;;13.70;;
78183;SDS011;67442;44.570;18.610;2023-05-24T11:27:24;34.25;;;14.00;;
78183;SDS011;67442;44.570;18.610;2023-05-24T11:29:52;33.80;;;12.63;;
78183;SDS011;67442;44.570;18.610;2023-05-24T11:32:19;30.90;;;12.82;;
78183;SDS011;67442;44.570;18.610;2023-05-24T11:34:48;32.05;;;13.55;;
78183;SDS011;67442;44.570;18.610;2023-05-24T11:37:16;35.00;;;13.40;;
78183;SDS011;67442;44.570;18.610;2023-05-24T11:39:43;33.85;;;13.98;;
78183;SDS011;67442;44.570;18.610;2023-05-24T11:42:20;36.55;;;13.20;;
78183;SDS011;67442;44.570;18.610;2023-05-24T11:44:47;32.55;;;12.80;;
78183;SDS011;67442;44.570;18.610;2023-05-24T11:47:14;36.35;;;12.50;;
78183;SDS011;67442;44.570;18.610;2023-05-24T11:49:41;32.38;;;12.82;;
78183;SDS011;67442;44.570;18.610;2023-05-24T11:52:09;32.13;;;12.23;;
78183;SDS011;67442;44.570;18.610;2023-05-24T11:54:36;28.77;;;12.35;;
78183;SDS011;67442;44.570;18.610;2023-05-24T11:57:10;30.80;;;12.32;;
78183;SDS011;67442;44.570;18.610;2023-05-24T11:59:37;32.95;;;13.23;;
78183;SDS011;67442;44.570;18.610;2023-05-24T12:02:06;34.53;;;13.43;;
78183;SDS011;67442;44.570;18.610;2023-05-24T12:04:37;31.75;;;11.90;;
78183;SDS011;67442;44.570;18.610;2023-05-24T12:07:11;33.13;;;12.30;;
78183;SDS011;67442;44.570;18.610;2023-05-24T12:09:55;31.75;;;12.38;;
78183;SDS011;67442;44.570;18.610;2023-05-24T12:12:22;29.17;;;12.38;;
78183;SDS011;67442;44.570;18.610;2023-05-24T12:14:49;29.65;;;11.68;;
78183;SDS011;67442;44.570;18.610;2023-05-24T12:17:25;28.33;;;11.90;;
78183;SDS011;67442;44.570;18.610;2023-05-24T12:19:52;32.13;;;11.82;;
78183;SDS011;67442;44.570;18.610;2023-05-24T12:22:24;27.20;;;11.77;;
78183;SDS011;67442;44.570;18.610;2023-05-24T12:24:52;27.90;;;11.40;;
78183;SDS011;67442;44.570;18.610;2023-05-24T12:27:26;30.83;;;12.55;;
78183;SDS011;67442;44.570;18.610;2023-05-24T12:30:05;33.15;;;12.43;;
78183;SDS011;67442;44.570;18.610;2023-05-24T12:32:34;31.42;;;11.52;;
78183;SDS011;67442;44.570;18.610;2023-05-24T12:35:05;31.20;;;13.00;;
78183;SDS011;67442;44.570;18.610;2023-05-24T12:37:37;27.85;;;11.25;;
78183;SDS011;67442;44.570;18.610;2023-05-24T12:40:19;33.50;;;13.27;;
78183;SDS011;67442;44.570;18.610;2023-05-24T12:45:24;27.33;;;11.02;;
78183;SDS011;67442;44.570;18.610;2023-05-24T12:47:52;28.17;;;11.65;;
78183;SDS011;67442;44.570;18.610;2023-05-24T12:50:20;27.05;;;12.07;;
78183;SDS011;67442;44.570;18.610;2023-05-24T12:52:48;31.02;;;11.77;;
78183;SDS011;67442;44.570;18.610;2023-05-24T12:55:17;27.38;;;11.18;;
78183;SDS011;67442;44.570;18.610;2023-05-24T12:57:47;33.13;;;12.07;;
78183;SDS011;67442;44.570;18.610;2023-05-24T13:00:26;24.67;;;11.10;;
78183;SDS011;67442;44.570;18.610;2023-05-24T13:02:53;26.15;;;11.15;;
78183;SDS011;67442;44.570;18.610;2023-05-24T13:05:23;27.05;;;11.20;;
78183;SDS011;67442;44.570;18.610;2023-05-24T13:07:55;25.75;;;12.05;;
78183;SDS011;67442;44.570;18.610;2023-05-24T13:10:26;23.80;;;10.70;;
78183;SDS011;67442;44.570;18.610;2023-05-24T13:12:57;27.38;;;10.93;;
78183;SDS011;67442;44.570;18.610;2023-05-24T13:15:25;26.50;;;10.95;;
78183;SDS011;67442;44.570;18.610;2023-05-24T13:17:53;24.70;;;10.77;;
78183;SDS011;67442;44.570;18.610;2023-05-24T13:20:23;28.35;;;11.88;;
78183;SDS011;67442;44.570;18.610;2023-05-24T13:22:50;26.45;;;10.60;;
78183;SDS011;67442;44.570;18.610;2023-05-24T13:25:21;26.38;;;10.75;;
78183;SDS011;67442;44.570;18.610;2023-05-24T13:27:49;22.23;;;10.40;;
78183;SDS011;67442;44.570;18.610;2023-05-24T13:30:17;27.80;;;11.63;;
78183;SDS011;67442;44.570;18.610;2023-05-24T13:32:52;27.88;;;11.50;;
78183;SDS011;67442;44.570;18.610;2023-05-24T13:35:25;27.40;;;10.75;;
78183;SDS011;67442;44.570;18.610;2023-05-24T13:37:58;23.48;;;10.30;;
78183;SDS011;67442;44.570;18.610;2023-05-24T13:40:25;28.73;;;11.35;;
78183;SDS011;67442;44.570;18.610;2023-05-24T13:42:53;23.52;;;10.55;;
78183;SDS011;67442;44.570;18.610;2023-05-24T13:45:21;22.80;;;10.85;;
78183;SDS011;67442;44.570;18.610;2023-05-24T13:47:50;24.92;;;10.85;;
78183;SDS011;67442;44.570;18.610;2023-05-24T13:50:25;28.63;;;11.88;;
78183;SDS011;67442;44.570;18.610;2023-05-24T13:52:52;23.83;;;10.60;;
78183;SDS011;67442;44.570;18.610;2023-05-24T13:55:19;26.20;;;11.23;;
78183;SDS011;67442;44.570;18.610;2023-05-24T13:57:47;26.10;;;10.35;;
78183;SDS011;67442;44.570;18.610;2023-05-24T14:00:15;24.10;;;10.77;;
78183;SDS011;67442;44.570;18.610;2023-05-24T14:02:44;27.30;;;11.50;;
78183;SDS011;67442;44.570;18.610;2023-05-24T14:05:16;26.80;;;10.80;;
78183;SDS011;67442;44.570;18.610;2023-05-24T14:07:43;23.48;;;10.73;;
78183;SDS011;67442;44.570;18.610;2023-05-24T14:10:13;26.02;;;11.82;;
78183;SDS011;67442;44.570;18.610;2023-05-24T14:12:40;26.70;;;11.00;;
78183;SDS011;67442;44.570;18.610;2023-05-24T14:15:08;20.98;;;9.90;;
78183;SDS011;67442;44.570;18.610;2023-05-24T14:17:37;25.58;;;11.18;;
78183;SDS011;67442;44.570;18.610;2023-05-24T14:20:05;23.05;;;10.57;;
78183;SDS011;67442;44.570;18.610;2023-05-24T14:22:35;27.58;;;10.52;;
78183;SDS011;67442;44.570;18.610;2023-05-24T14:25:06;26.95;;;10.60;;
78183;SDS011;67442;44.570;18.610;2023-05-24T14:27:35;20.95;;;9.82;;
78183;SDS011;67442;44.570;18.610;2023-05-24T14:30:05;20.95;;;10.00;;
78183;SDS011;67442;44.570;18.610;2023-05-24T14:32:35;23.25;;;10.35;;
78183;SDS011;67442;44.570;18.610;2023-05-24T14:35:01;23.23;;;10.50;;
78183;SDS011;67442;44.570;18.610;2023-05-24T14:37:29;19.23;;;9.13;;
78183;SDS011;67442;44.570;18.610;2023-05-24T14:39:56;24.33;;;10.20;;
78183;SDS011;67442;44.570;18.610;2023-05-24T14:42:23;25.75;;;10.48;;
78183;SDS011;67442;44.570;18.610;2023-05-24T14:44:51;21.58;;;9.32;;
78183;SDS011;67442;44.570;18.610;2023-05-24T14:47:22;25.00;;;10.38;;
78183;SDS011;67442;44.570;18.610;2023-05-24T14:49:53;22.48;;;10.48;;
78183;SDS011;67442;44.570;18.610;2023-05-24T14:52:20;21.65;;;10.05;;
78183;SDS011;67442;44.570;18.610;2023-05-24T14:54:52;23.08;;;10.30;;
78183;SDS011;67442;44.570;18.610;2023-05-24T14:57:19;22.23;;;9.38;;
78183;SDS011;67442;44.570;18.610;2023-05-24T14:59:47;19.73;;;9.88;;